Time;durP1;ratioP1;P1;durP2;ratioP2;P2;SDS_P1;SDS_P2;PMS_P1;PMS_P2;Temp;Humidity;BMP_temperature;BMP_pressure;BME280_temperature;BME280_humidity;BME280_pressure;Samples;Min_cycle;Max_cycle;Signal;HPM_P1;HPM_P2
2022/05/01 00:00:48;;;;;;;5.97;4.50;;;11.10;94.60;;;;;;5069178;28;20025;-47
2022/05/01 00:03:30;;;;;;;6.03;4.30;;;11.10;94.90;;;;;;5068385;28;20229;-46
2022/05/01 00:06:00;;;;;;;5.60;4.72;;;11.10;95.90;;;;;;5068980;28;20020;-47
2022/05/01 00:08:27;;;;;;;6.13;4.78;;;11.00;95.50;;;;;;5067392;28;20453;-49
2022/05/01 00:10:52;;;;;;;7.00;4.63;;;11.00;96.40;;;;;;5069045;28;20115;-46
2022/05/01 00:13:18;;;;;;;5.05;4.15;;;11.10;97.30;;;;;;5067666;28;20099;-48
2022/05/01 00:15:43;;;;;;;5.70;4.53;;;11.00;97.70;;;;;;5068798;28;20025;-48
2022/05/01 00:18:09;;;;;;;5.85;4.63;;;11.00;97.70;;;;;;5068726;28;20025;-47
2022/05/01 00:20:35;;;;;;;6.20;4.68;;;11.00;98.40;;;;;;5068540;28;20441;-49
2022/05/01 00:23:00;;;;;;;9.10;4.30;;;11.00;98.00;;;;;;5068018;28;20017;-49
2022/05/01 00:25:26;;;;;;;8.43;4.88;;;11.00;98.60;;;;;;5068444;28;20101;-48
2022/05/01 00:27:52;;;;;;;7.30;5.57;;;11.00;98.20;;;;;;5066892;28;20027;-47
2022/05/01 00:30:17;;;;;;;9.07;4.45;;;11.00;98.50;;;;;;5068415;28;20263;-49
2022/05/01 00:38:11;;;;;;;5.63;4.60;;;11.00;97.70;;;;;;5068366;28;20032;-47
2022/05/01 00:40:37;;;;;;;6.20;4.93;;;11.00;97.50;;;;;;5068521;28;20025;-48
2022/05/01 00:43:04;;;;;;;8.95;4.75;;;11.00;97.70;;;;;;5067284;28;20099;-49
2022/05/01 00:45:30;;;;;;;7.60;5.13;;;11.00;97.90;;;;;;5068211;28;20033;-46
2022/05/01 00:47:56;;;;;;;8.13;4.45;;;11.00;98.00;;;;;;5067834;28;20085;-50
2022/05/01 00:50:22;;;;;;;9.23;4.93;;;11.00;98.90;;;;;;5066575;28;20028;-50
2022/05/01 00:52:48;;;;;;;6.82;5.43;;;10.90;98.40;;;;;;5067552;28;20036;-49
2022/05/01 00:55:15;;;;;;;5.95;5.05;;;10.90;98.70;;;;;;5068089;28;20036;-47
2022/05/01 00:57:41;;;;;;;9.88;4.75;;;10.90;98.90;;;;;;5068004;28;20401;-48
2022/05/01 01:00:07;;;;;;;5.07;4.40;;;10.90;98.60;;;;;;5067848;28;20012;-47
2022/05/01 01:02:33;;;;;;;9.80;4.60;;;11.00;98.80;;;;;;5066790;28;20063;-50
2022/05/01 01:04:58;;;;;;;7.50;4.38;;;11.00;98.90;;;;;;5067797;28;20501;-49
2022/05/01 01:07:26;;;;;;;10.00;5.50;;;11.00;98.40;;;;;;5065936;28;20062;-47
2022/05/01 01:09:51;;;;;;;5.45;4.18;;;11.00;98.90;;;;;;5067948;28;20116;-47
2022/05/01 01:15:09;;;;;;;6.35;4.75;;;11.00;99.80;;;;;;5067969;28;20039;-47
2022/05/01 01:17:42;;;;;;;5.53;4.38;;;11.00;98.60;;;;;;5067559;28;20550;-48
2022/05/01 01:20:11;;;;;;;9.02;5.10;;;11.00;98.80;;;;;;5067394;28;20056;-47
2022/05/01 01:22:40;;;;;;;7.82;4.82;;;11.00;99.10;;;;;;5066962;28;20016;-47
2022/05/01 01:25:10;;;;;;;8.90;5.75;;;11.00;98.80;;;;;;5067516;28;20021;-48
2022/05/01 01:27:42;;;;;;;8.90;5.50;;;10.90;98.70;;;;;;5065987;28;20040;-50
2022/05/01 01:32:54;;;;;;;8.57;5.40;;;11.00;98.80;;;;;;5067335;28;20036;-49
2022/05/01 01:35:22;;;;;;;6.68;5.38;;;10.90;98.50;;;;;;5067751;28;20029;-48
2022/05/01 01:37:49;;;;;;;8.77;5.65;;;11.00;98.60;;;;;;5067094;28;20070;-48
2022/05/01 01:40:21;;;;;;;10.07;5.70;;;10.90;98.60;;;;;;5067513;28;20029;-46
2022/05/01 01:42:50;;;;;;;9.95;5.30;;;11.00;99.00;;;;;;5066896;28;20056;-49
2022/05/01 01:45:16;;;;;;;9.32;5.47;;;10.90;99.40;;;;;;5066125;28;20025;-46
2022/05/01 01:47:43;;;;;;;8.15;5.22;;;10.90;99.30;;;;;;5067100;28;20116;-47
2022/05/01 01:50:11;;;;;;;9.48;5.28;;;10.80;99.00;;;;;;5067308;28;20031;-46
2022/05/01 01:52:37;;;;;;;7.18;5.78;;;10.80;98.60;;;;;;5066958;28;20021;-46
2022/05/01 01:55:02;;;;;;;7.60;5.50;;;10.80;99.10;;;;;;5067125;28;20105;-47
2022/05/01 01:57:29;;;;;;;12.23;6.47;;;10.80;98.80;;;;;;5067527;28;20031;-48
2022/05/01 01:59:54;;;;;;;12.45;5.82;;;10.80;98.30;;;;;;5067313;28;20260;-47
2022/05/01 02:02:20;;;;;;;11.85;5.65;;;10.70;98.70;;;;;;5066875;28;20070;-47
2022/05/01 02:04:45;;;;;;;9.02;5.45;;;10.80;98.70;;;;;;5065827;28;20024;-48
2022/05/01 02:07:11;;;;;;;10.73;5.53;;;10.80;98.50;;;;;;5067437;28;20377;-47
2022/05/01 02:09:37;;;;;;;9.48;5.63;;;10.70;98.60;;;;;;5066896;28;20017;-48
2022/05/01 02:12:08;;;;;;;9.23;5.30;;;10.70;98.60;;;;;;5066313;28;20029;-49
2022/05/01 02:14:36;;;;;;;12.15;5.50;;;10.70;98.50;;;;;;5067091;28;20579;-49
2022/05/01 02:17:04;;;;;;;8.38;5.68;;;10.70;98.50;;;;;;5066598;28;20057;-47
2022/05/01 02:19:30;;;;;;;10.40;5.57;;;10.70;98.60;;;;;;5067329;28;20138;-48
2022/05/01 02:21:56;;;;;;;11.18;6.20;;;10.70;98.50;;;;;;5066368;28;20112;-46
2022/05/01 02:24:25;;;;;;;8.15;5.57;;;10.60;98.80;;;;;;5066997;28;20020;-47
2022/05/01 02:26:51;;;;;;;9.18;5.97;;;10.70;99.00;;;;;;5065834;28;20033;-49
2022/05/01 02:29:16;;;;;;;9.48;5.70;;;10.60;98.40;;;;;;5066988;28;20033;-49
2022/05/01 02:31:44;;;;;;;10.02;5.75;;;10.70;98.80;;;;;;5066344;28;20063;-47
2022/05/01 02:34:11;;;;;;;7.57;5.03;;;10.60;99.10;;;;;;5065633;28;20028;-47
2022/05/01 02:36:37;;;;;;;9.50;5.68;;;10.60;99.10;;;;;;5066993;28;20017;-48
2022/05/01 02:39:04;;;;;;;15.13;6.07;;;10.60;99.20;;;;;;5067146;28;20371;-47
2022/05/01 02:41:30;;;;;;;11.88;5.60;;;10.60;99.00;;;;;;5069895;28;20071;-48
2022/05/01 02:43:56;;;;;;;8.98;5.57;;;10.60;99.10;;;;;;5070412;28;20308;-46
2022/05/01 02:46:22;;;;;;;8.55;6.05;;;10.60;99.00;;;;;;5071001;28;20477;-47
2022/05/01 02:48:49;;;;;;;9.85;5.65;;;10.50;99.10;;;;;;5070230;28;20082;-47
2022/05/01 02:51:14;;;;;;;8.52;5.45;;;10.60;99.40;;;;;;5070094;28;20021;-47
2022/05/01 02:53:40;;;;;;;7.80;5.40;;;10.60;99.40;;;;;;5068191;28;20354;-47
2022/05/01 02:56:05;;;;;;;9.82;5.95;;;10.60;99.40;;;;;;5070023;28;20032;-47
2022/05/01 02:58:31;;;;;;;10.38;5.93;;;10.50;99.60;;;;;;5070027;28;20543;-47
2022/05/01 03:00:57;;;;;;;8.57;5.95;;;10.50;99.30;;;;;;5069664;28;20466;-49
2022/05/01 03:03:24;;;;;;;8.82;6.10;;;10.50;99.90;;;;;;5069631;28;20028;-46
2022/05/01 03:05:51;;;;;;;8.88;6.07;;;10.50;99.70;;;;;;5069563;28;20028;-48
2022/05/01 03:08:17;;;;;;;11.93;5.82;;;10.50;99.80;;;;;;5069805;28;20402;-48
2022/05/01 03:10:43;;;;;;;8.00;5.55;;;10.50;99.90;;;;;;5069808;28;20036;-48
2022/05/01 03:13:09;;;;;;;6.65;5.53;;;10.50;99.90;;;;;;5069329;28;20016;-47
2022/05/01 03:15:34;;;;;;;13.35;6.88;;;10.40;99.90;;;;;;5068594;28;20028;-48
2022/05/01 03:23:29;;;;;;;8.38;5.95;;;10.50;99.90;;;;;;5069079;28;20121;-47
2022/05/01 03:25:55;;;;;;;9.93;6.60;;;10.40;99.90;;;;;;5069584;28;20402;-49
2022/05/01 03:28:20;;;;;;;9.07;5.78;;;10.50;99.90;;;;;;5069834;28;20024;-47
2022/05/01 03:30:46;;;;;;;8.77;5.90;;;10.40;99.90;;;;;;5069130;28;20032;-47
2022/05/01 03:33:12;;;;;;;11.02;6.72;;;10.40;99.90;;;;;;5068849;28;20032;-47
2022/05/01 03:35:37;;;;;;;10.13;6.50;;;10.40;99.90;;;;;;5069122;28;20023;-50
2022/05/01 03:38:04;;;;;;;7.60;5.97;;;10.30;99.90;;;;;;5069135;28;20020;-47
2022/05/01 03:40:30;;;;;;;8.38;5.78;;;10.30;99.90;;;;;;5068950;28;20074;-48
2022/05/01 03:42:56;;;;;;;9.40;6.07;;;10.40;99.90;;;;;;5068448;28;20024;-47
2022/05/01 03:45:21;;;;;;;13.80;6.30;;;10.30;99.90;;;;;;5069048;28;20631;-48
2022/05/01 03:47:47;;;;;;;11.02;6.20;;;10.30;99.90;;;;;;5069172;28;20029;-49
2022/05/01 03:50:12;;;;;;;8.93;5.65;;;10.20;99.90;;;;;;5069035;28;20052;-48
2022/05/01 03:52:39;;;;;;;7.35;5.78;;;10.20;99.90;;;;;;5068353;28;20037;-49
2022/05/01 03:55:05;;;;;;;8.90;6.18;;;10.30;99.90;;;;;;5069000;28;20436;-48
2022/05/01 03:57:32;;;;;;;11.75;7.45;;;10.20;99.90;;;;;;5068900;28;20020;-48
2022/05/01 03:59:58;;;;;;;8.40;6.00;;;10.30;99.90;;;;;;5068933;28;20021;-49
2022/05/01 04:02:23;;;;;;;8.07;6.50;;;10.20;99.90;;;;;;5066869;28;20021;-48
2022/05/01 04:04:49;;;;;;;8.95;5.82;;;10.20;99.90;;;;;;5067041;28;20139;-48
2022/05/01 04:07:15;;;;;;;12.98;7.63;;;10.20;99.90;;;;;;5068644;28;20519;-48
2022/05/01 04:09:41;;;;;;;8.57;6.45;;;10.20;99.90;;;;;;5068771;28;20040;-48
2022/05/01 04:12:06;;;;;;;8.68;6.32;;;10.20;99.90;;;;;;5068149;28;20051;-49
2022/05/01 04:14:33;;;;;;;10.50;6.13;;;10.20;99.90;;;;;;5068209;28;20485;-48
2022/05/01 04:17:01;;;;;;;11.18;6.72;;;10.20;99.90;;;;;;5067365;28;20534;-49
2022/05/01 04:19:28;;;;;;;10.40;7.38;;;10.20;99.90;;;;;;5068280;28;20044;-47
2022/05/01 04:21:55;;;;;;;14.52;8.13;;;10.20;99.90;;;;;;5067902;28;20492;-47
2022/05/01 04:24:21;;;;;;;11.40;7.18;;;10.20;99.90;;;;;;5068407;28;20033;-48
2022/05/01 04:26:46;;;;;;;12.98;7.70;;;10.20;99.90;;;;;;5067031;28;20033;-49
2022/05/01 04:31:56;;;;;;;14.48;7.22;;;10.20;99.90;;;;;;5067639;28;20119;-49
2022/05/01 04:34:21;;;;;;;9.93;7.50;;;10.20;99.90;;;;;;5068028;28;20120;-47
2022/05/01 04:36:46;;;;;;;9.30;6.82;;;10.20;99.90;;;;;;5068556;28;20024;-47
2022/05/01 04:39:12;;;;;;;12.43;6.28;;;10.30;99.90;;;;;;5068155;28;20497;-47
2022/05/01 04:41:38;;;;;;;9.85;6.80;;;10.30;99.90;;;;;;5067490;28;20021;-48
2022/05/01 04:44:03;;;;;;;10.68;6.40;;;10.30;99.90;;;;;;5068080;28;20040;-48
2022/05/01 04:46:29;;;;;;;11.25;7.22;;;10.30;99.90;;;;;;5068656;28;20473;-48
2022/05/01 04:48:55;;;;;;;13.68;7.93;;;10.40;99.90;;;;;;5067963;28;20039;-47
2022/05/01 04:51:20;;;;;;;10.82;7.40;;;10.40;99.90;;;;;;5067572;28;20029;-49
2022/05/01 04:53:46;;;;;;;11.95;7.22;;;10.40;99.90;;;;;;5067375;28;20029;-47
2022/05/01 04:58:55;;;;;;;12.65;8.10;;;10.40;99.90;;;;;;5067558;28;20074;-47
2022/05/01 05:01:21;;;;;;;10.77;7.85;;;10.40;99.90;;;;;;5067745;28;20024;-47
2022/05/01 05:03:46;;;;;;;10.35;8.00;;;10.40;99.90;;;;;;5066625;28;20040;-50
2022/05/01 05:06:12;;;;;;;12.75;7.97;;;10.40;99.90;;;;;;5067806;28;20509;-48
2022/05/01 05:11:21;;;;;;;12.57;7.53;;;10.40;99.90;;;;;;5067974;28;20039;-49
2022/05/01 05:13:46;;;;;;;9.45;7.00;;;10.50;99.90;;;;;;5066647;28;20032;-48
2022/05/01 05:16:15;;;;;;;11.23;7.88;;;10.50;99.90;;;;;;5067559;28;20480;-48
2022/05/01 05:18:40;;;;;;;14.63;7.88;;;10.50;99.90;;;;;;5067563;28;20027;-47
2022/05/01 05:21:07;;;;;;;11.38;7.63;;;10.60;99.90;;;;;;5067744;28;20474;-48
2022/05/01 05:23:33;;;;;;;11.00;7.55;;;10.50;99.90;;;;;;5066698;28;20025;-47
2022/05/01 05:25:58;;;;;;;10.40;7.65;;;10.60;99.90;;;;;;5067271;28;20032;-47
2022/05/01 05:28:24;;;;;;;12.98;7.50;;;10.50;99.90;;;;;;5067558;28;20031;-47
2022/05/01 05:30:49;;;;;;;14.98;8.02;;;10.60;99.90;;;;;;5067122;28;20039;-47
2022/05/01 05:33:15;;;;;;;12.50;8.00;;;10.50;99.90;;;;;;5066810;28;20025;-47
2022/05/01 05:35:41;;;;;;;12.98;7.75;;;10.50;99.90;;;;;;5067361;28;20033;-48
2022/05/01 05:38:07;;;;;;;14.55;7.90;;;10.50;99.90;;;;;;5067472;28;20033;-48
2022/05/01 05:40:32;;;;;;;10.70;7.63;;;10.50;99.90;;;;;;5067708;28;20390;-47
2022/05/01 05:42:58;;;;;;;14.50;7.88;;;10.50;99.90;;;;;;5067127;28;20263;-46
2022/05/01 05:45:23;;;;;;;12.75;7.97;;;10.40;99.90;;;;;;5067369;28;20394;-47
2022/05/01 05:47:49;;;;;;;15.13;8.00;;;10.50;99.90;;;;;;5065808;28;20028;-48
2022/05/01 05:50:14;;;;;;;10.70;8.05;;;10.40;99.90;;;;;;5067489;28;20020;-47
2022/05/01 05:52:40;;;;;;;13.20;7.95;;;10.50;99.90;;;;;;5066628;28;20433;-47
2022/05/01 05:55:06;;;;;;;12.35;7.72;;;10.40;99.90;;;;;;5065688;28;20108;-47
2022/05/01 05:57:32;;;;;;;15.25;8.43;;;10.30;99.90;;;;;;5067076;28;20543;-48
2022/05/01 05:59:57;;;;;;;13.77;7.43;;;10.40;99.90;;;;;;5065854;28;20025;-47
2022/05/01 06:02:23;;;;;;;14.35;7.78;;;10.40;99.90;;;;;;5066880;28;20202;-49
2022/05/01 06:04:48;;;;;;;12.15;7.72;;;10.40;99.90;;;;;;5067184;28;20032;-48
2022/05/01 06:07:14;;;;;;;13.50;7.80;;;10.50;99.90;;;;;;5066845;28;20512;-47
2022/05/01 06:09:39;;;;;;;11.93;8.00;;;10.50;99.90;;;;;;5066887;28;20028;-47
2022/05/01 06:12:05;;;;;;;13.65;7.78;;;10.50;99.90;;;;;;5066448;28;20032;-46
2022/05/01 06:14:30;;;;;;;12.43;7.90;;;10.50;99.90;;;;;;5068714;28;20028;-47
2022/05/01 06:16:56;;;;;;;12.43;7.82;;;10.60;99.90;;;;;;5070803;28;20028;-47
2022/05/01 06:19:21;;;;;;;12.07;7.45;;;10.60;99.90;;;;;;5070648;28;20107;-47
2022/05/01 06:21:47;;;;;;;11.32;7.50;;;10.60;99.90;;;;;;5070080;28;20039;-47
2022/05/01 06:24:12;;;;;;;12.65;7.28;;;10.70;99.90;;;;;;5070529;28;20017;-49
2022/05/01 06:26:38;;;;;;;13.20;7.28;;;10.80;99.90;;;;;;5070791;28;20028;-47
2022/05/01 06:29:04;;;;;;;12.75;7.25;;;10.90;99.90;;;;;;5070948;28;20167;-46
2022/05/01 06:31:29;;;;;;;17.40;7.85;;;10.90;99.90;;;;;;5069951;28;20035;-48
2022/05/01 06:33:55;;;;;;;11.00;8.10;;;11.00;99.90;;;;;;5070241;28;20264;-49
2022/05/01 06:36:21;;;;;;;11.82;7.80;;;11.10;99.90;;;;;;5070386;28;20059;-54
2022/05/01 06:38:47;;;;;;;10.60;7.32;;;11.10;99.90;;;;;;5070261;28;20032;-47
2022/05/01 06:41:13;;;;;;;11.05;7.28;;;11.20;99.90;;;;;;5070509;28;20035;-48
2022/05/01 06:43:39;;;;;;;21.38;8.70;;;11.30;99.90;;;;;;5069748;28;20435;-46
2022/05/01 06:46:04;;;;;;;16.10;7.50;;;11.30;99.90;;;;;;5068741;28;20031;-47
2022/05/01 06:48:30;;;;;;;9.50;7.38;;;11.30;99.90;;;;;;5070282;28;20033;-47
2022/05/01 06:50:56;;;;;;;14.75;7.85;;;11.30;99.90;;;;;;5069978;28;20037;-46
2022/05/01 06:53:21;;;;;;;12.82;7.03;;;11.30;99.90;;;;;;5069803;28;20028;-49
2022/05/01 06:55:48;;;;;;;14.10;7.07;;;11.40;99.90;;;;;;5070270;28;20021;-48
2022/05/01 06:58:13;;;;;;;12.88;8.45;;;11.30;99.90;;;;;;5070104;28;20020;-48
2022/05/01 07:00:39;;;;;;;9.10;6.60;;;11.40;99.90;;;;;;5070424;28;20023;-48
2022/05/01 07:03:05;;;;;;;9.32;7.10;;;11.30;99.90;;;;;;5069473;28;20047;-49
2022/05/01 07:05:30;;;;;;;12.52;6.85;;;11.30;99.90;;;;;;5069997;28;20441;-47
2022/05/01 07:07:56;;;;;;;14.35;7.35;;;11.30;99.90;;;;;;5069765;28;20035;-47
2022/05/01 07:10:22;;;;;;;14.15;7.55;;;11.30;99.90;;;;;;5069521;28;20102;-48
2022/05/01 07:12:48;;;;;;;12.25;7.72;;;11.30;99.90;;;;;;5069074;28;20035;-47
2022/05/01 07:15:14;;;;;;;10.20;7.35;;;11.30;99.90;;;;;;5069672;28;20386;-47
2022/05/01 07:17:40;;;;;;;16.77;7.35;;;11.20;99.90;;;;;;5068102;28;20045;-47
2022/05/01 07:20:07;;;;;;;17.40;7.57;;;11.30;99.90;;;;;;5069818;28;20613;-48
2022/05/01 07:22:33;;;;;;;14.18;7.40;;;11.30;99.90;;;;;;5068894;28;20115;-48
2022/05/01 07:24:58;;;;;;;16.83;8.00;;;11.30;99.90;;;;;;5069557;28;20064;-48
2022/05/01 07:27:24;;;;;;;10.88;7.60;;;11.30;99.90;;;;;;5067612;28;20028;-48
2022/05/01 07:29:49;;;;;;;12.10;7.70;;;11.30;99.90;;;;;;5069547;28;20051;-47
2022/05/01 07:32:15;;;;;;;14.82;8.90;;;11.30;99.90;;;;;;5068838;28;20028;-48
2022/05/01 07:34:41;;;;;;;12.15;8.18;;;11.30;99.90;;;;;;5069441;28;20135;-47
2022/05/01 07:37:06;;;;;;;13.15;7.30;;;11.30;99.90;;;;;;5068837;28;20021;-47
2022/05/01 07:39:32;;;;;;;14.60;8.52;;;11.30;99.90;;;;;;5069291;28;20492;-49
2022/05/01 07:41:57;;;;;;;12.35;7.45;;;11.40;99.90;;;;;;5067456;28;20166;-47
2022/05/01 07:44:23;;;;;;;15.80;9.32;;;11.40;99.90;;;;;;5069539;28;20025;-46
2022/05/01 07:46:50;;;;;;;9.85;7.80;;;11.50;99.90;;;;;;5069180;28;20036;-46
2022/05/01 07:49:15;;;;;;;13.52;9.23;;;11.50;99.90;;;;;;5069206;28;20107;-46
2022/05/01 07:51:41;;;;;;;12.93;8.48;;;11.50;99.90;;;;;;5066979;28;20170;-47
2022/05/01 07:54:07;;;;;;;19.65;8.48;;;11.50;99.90;;;;;;5068631;28;20036;-47
2022/05/01 07:56:34;;;;;;;11.88;7.47;;;11.70;99.90;;;;;;5067543;28;20032;-48
2022/05/01 07:59:00;;;;;;;10.85;7.30;;;11.70;99.90;;;;;;5068711;28;20024;-48
2022/05/01 08:01:26;;;;;;;13.48;7.78;;;11.70;99.90;;;;;;5068879;28;20024;-47
2022/05/01 08:06:36;;;;;;;10.00;7.30;;;11.90;99.90;;;;;;5068576;28;20059;-48
2022/05/01 08:09:02;;;;;;;14.73;8.25;;;11.90;99.90;;;;;;5068984;28;20462;-46
2022/05/01 08:11:28;;;;;;;18.67;8.73;;;12.00;99.90;;;;;;5068822;28;20036;-48
2022/05/01 08:13:54;;;;;;;12.00;7.88;;;12.10;99.90;;;;;;5069054;28;20024;-50
2022/05/01 08:16:20;;;;;;;17.88;8.98;;;12.10;99.90;;;;;;5068411;28;20498;-49
2022/05/01 08:21:32;;;;;;;15.15;8.95;;;12.20;99.90;;;;;;5068410;28;20539;-46
2022/05/01 08:24:02;;;;;;;22.45;8.65;;;12.20;99.90;;;;;;5068576;28;20017;-48
2022/05/01 08:26:31;;;;;;;12.75;7.63;;;12.20;99.90;;;;;;5050909;28;20024;-47
2022/05/01 08:28:57;;;;;;;11.80;7.72;;;12.20;99.90;;;;;;5068920;28;20112;-49
2022/05/01 08:31:22;;;;;;;11.07;7.35;;;12.20;99.90;;;;;;5068476;28;20175;-48
2022/05/01 08:33:48;;;;;;;14.15;7.80;;;12.20;99.90;;;;;;5067533;28;20028;-48
2022/05/01 08:36:13;;;;;;;15.05;8.20;;;12.30;99.90;;;;;;5067811;28;20033;-49
2022/05/01 08:38:39;;;;;;;15.27;8.65;;;12.30;99.90;;;;;;5067254;28;20121;-46
2022/05/01 08:41:06;;;;;;;13.18;7.95;;;12.20;99.90;;;;;;5068203;28;20785;-47
2022/05/01 08:43:33;;;;;;;11.75;7.05;;;12.20;99.90;;;;;;5065664;28;20021;-47
2022/05/01 08:46:17;;;;;;;14.07;7.90;;;12.20;99.90;;;;;;5067876;28;20028;-47
2022/05/01 08:49:06;;;;;;;14.68;7.53;;;12.10;99.90;;;;;;5066067;28;20028;-48
2022/05/01 08:51:37;;;;;;;9.25;6.85;;;12.00;99.90;;;;;;5067362;28;20287;-47
2022/05/01 08:54:07;;;;;;;10.25;7.22;;;12.00;99.90;;;;;;5067397;28;20031;-49
2022/05/01 08:56:35;;;;;;;14.73;7.40;;;11.80;99.90;;;;;;5067764;28;20020;-49
2022/05/01 08:59:04;;;;;;;12.25;6.97;;;11.90;99.90;;;;;;5066575;28;20032;-46
2022/05/01 09:01:34;;;;;;;12.73;7.20;;;12.00;99.90;;;;;;5067464;28;20020;-48
2022/05/01 09:04:01;;;;;;;10.30;7.07;;;11.90;99.90;;;;;;5067988;28;20060;-47
2022/05/01 09:06:27;;;;;;;13.25;7.32;;;11.90;99.90;;;;;;5067641;28;20035;-47
2022/05/01 09:08:53;;;;;;;14.60;7.22;;;11.90;99.90;;;;;;5067653;28;20035;-47
2022/05/01 09:14:04;;;;;;;13.38;7.55;;;11.90;99.90;;;;;;5068211;28;20067;-47
2022/05/01 09:16:29;;;;;;;14.88;7.68;;;11.90;99.90;;;;;;5067663;28;20021;-47
2022/05/01 09:18:55;;;;;;;11.45;6.80;;;11.80;99.90;;;;;;5067577;28;20148;-50
2022/05/01 09:21:21;;;;;;;13.48;7.90;;;11.80;99.90;;;;;;5067327;28;20024;-48
2022/05/01 09:23:48;;;;;;;15.10;8.15;;;11.80;99.90;;;;;;5067074;28;20369;-47
2022/05/01 09:26:15;;;;;;;11.05;6.90;;;11.90;99.90;;;;;;5067562;28;20020;-48
2022/05/01 09:28:52;;;;;;;12.13;7.03;;;11.80;99.90;;;;;;5067594;28;20059;-48
2022/05/01 09:31:38;;;;;;;10.00;7.30;;;11.80;99.90;;;;;;5068260;28;20096;-47
2022/05/01 09:34:23;;;;;;;12.38;7.80;;;11.80;99.90;;;;;;5067483;28;20112;-48
2022/05/01 09:36:50;;;;;;;13.18;7.50;;;11.90;99.90;;;;;;5067967;28;20059;-50
2022/05/01 09:39:21;;;;;;;12.77;6.90;;;11.90;99.90;;;;;;5067693;28;20058;-47
2022/05/01 09:41:49;;;;;;;10.95;6.63;;;11.90;99.90;;;;;;5066862;28;20067;-46
2022/05/01 09:44:15;;;;;;;12.27;7.18;;;12.00;99.90;;;;;;5065961;28;20028;-47
2022/05/01 09:46:44;;;;;;;10.57;6.25;;;12.10;99.90;;;;;;5066971;28;20036;-48
2022/05/01 09:49:13;;;;;;;9.77;6.53;;;12.20;99.90;;;;;;5068436;28;20056;-48
2022/05/01 09:51:48;;;;;;;12.20;7.30;;;12.20;99.90;;;;;;5070699;28;20025;-49
2022/05/01 09:54:18;;;;;;;12.43;7.30;;;12.30;99.90;;;;;;5071177;28;20025;-47
2022/05/01 09:56:53;;;;;;;14.23;7.47;;;12.40;99.90;;;;;;5070823;28;20088;-48
2022/05/01 09:59:21;;;;;;;9.27;6.50;;;12.40;99.90;;;;;;5071208;28;20116;-48
2022/05/01 10:02:00;;;;;;;10.30;6.47;;;12.50;99.90;;;;;;5069209;28;20024;-49
2022/05/01 10:04:25;;;;;;;12.23;7.13;;;12.60;99.90;;;;;;5069753;28;20044;-48
2022/05/01 10:06:54;;;;;;;8.70;5.63;;;12.50;99.90;;;;;;5070854;28;20055;-48
2022/05/01 10:09:23;;;;;;;10.25;6.30;;;12.50;99.90;;;;;;5069369;28;20031;-47
2022/05/01 10:11:53;;;;;;;10.73;6.05;;;12.60;99.90;;;;;;5070358;28;20144;-49
2022/05/01 10:14:20;;;;;;;13.13;5.80;;;12.60;99.90;;;;;;5070835;28;20024;-47
2022/05/01 10:16:46;;;;;;;9.65;5.38;;;12.70;99.90;;;;;;5070503;28;20023;-47
2022/05/01 10:19:14;;;;;;;11.85;5.80;;;12.70;99.90;;;;;;5070735;28;20360;-48
2022/05/01 10:21:48;;;;;;;13.05;5.05;;;12.80;99.90;;;;;;5070020;28;20043;-48
2022/05/01 10:24:18;;;;;;;10.60;5.60;;;12.90;99.90;;;;;;5070753;28;20393;-47
2022/05/01 10:27:04;;;;;;;7.77;4.73;;;13.00;99.90;;;;;;5070747;28;20028;-50
2022/05/01 10:32:57;;;;;;;11.18;7.03;;;13.10;99.90;;;;;;5070369;28;20032;-50
2022/05/01 10:35:37;;;;;;;16.33;7.22;;;13.30;99.90;;;;;;5070214;28;20024;-48
2022/05/01 10:38:28;;;;;;;13.25;6.55;;;13.20;99.90;;;;;;5070486;28;20016;-50
2022/05/01 10:40:55;;;;;;;8.93;6.22;;;13.10;99.90;;;;;;5070473;28;20043;-48
2022/05/01 10:43:25;;;;;;;10.32;6.38;;;13.30;99.90;;;;;;5069775;28;20112;-46
2022/05/01 10:45:58;;;;;;;10.20;6.53;;;13.50;99.90;;;;;;5070594;28;20032;-46
2022/05/01 10:48:36;;;;;;;15.10;6.32;;;13.50;99.60;;;;;;5070613;28;20099;-47
2022/05/01 10:51:38;;;;;;;5.78;4.95;;;13.60;99.50;;;;;;5070362;28;20477;-46
2022/05/01 10:54:09;;;;;;;10.40;5.13;;;14.00;98.20;;;;;;5070307;28;20500;-48
2022/05/01 10:56:36;;;;;;;5.70;4.45;;;14.00;96.90;;;;;;5070554;28;20024;-46
2022/05/01 10:59:29;;;;;;;5.68;3.72;;;14.20;97.30;;;;;;5064124;28;20040;-45
2022/05/01 11:02:00;;;;;;;6.35;3.88;;;14.50;93.70;;;;;;5057702;28;20025;-46
2022/05/01 11:04:29;;;;;;;8.43;4.47;;;14.80;93.20;;;;;;5058479;28;20017;-46
2022/05/01 11:06:57;;;;;;;5.70;3.90;;;15.10;93.30;;;;;;5069925;28;20037;-45
2022/05/01 11:09:24;;;;;;;6.72;4.00;;;15.20;91.30;;;;;;5064513;28;20024;-48
2022/05/01 11:11:59;;;;;;;9.27;4.10;;;15.20;91.20;;;;;;5067843;28;20060;-48
2022/05/01 11:14:35;;;;;;;8.63;4.57;;;15.30;90.70;;;;;;5063100;28;20457;-47
2022/05/01 11:17:04;;;;;;;5.45;3.67;;;15.30;87.20;;;;;;5057793;28;20021;-49
2022/05/01 11:19:34;;;;;;;5.25;3.85;;;15.50;90.10;;;;;;5064198;28;21669;-46
2022/05/01 11:22:07;;;;;;;6.72;3.47;;;15.80;86.60;;;;;;5056081;28;20017;-47
2022/05/01 11:24:43;;;;;;;7.07;4.13;;;16.10;83.60;;;;;;5068313;28;20047;-47
2022/05/01 11:27:16;;;;;;;6.50;3.70;;;16.50;80.90;;;;;;5073704;28;20446;-47
2022/05/01 11:30:07;;;;;;;7.55;3.92;;;16.80;81.00;;;;;;5059561;28;20193;-49
2022/05/01 11:32:52;;;;;;;7.10;4.18;;;17.00;78.80;;;;;;5075303;28;20027;-47
2022/05/01 11:35:19;;;;;;;8.68;3.58;;;16.90;75.30;;;;;;5065417;28;20115;-50
2022/05/01 11:38:00;;;;;;;5.53;3.30;;;17.20;78.50;;;;;;5080668;28;20012;-47
2022/05/01 11:40:27;;;;;;;3.92;2.78;;;17.20;75.30;;;;;;5090019;28;20358;-48
2022/05/01 11:43:13;;;;;;;4.40;2.88;;;17.20;69.50;;;;;;5071576;28;20370;-48
2022/05/01 11:45:38;;;;;;;4.72;3.13;;;17.20;68.10;;;;;;5049136;28;20538;-47
2022/05/01 11:48:10;;;;;;;5.47;3.20;;;18.50;67.40;;;;;;5069203;28;20021;-47
2022/05/01 11:50:38;;;;;;;7.75;2.88;;;19.90;63.90;;;;;;5069175;28;20404;-46
2022/05/01 11:53:14;;;;;;;3.53;2.90;;;21.00;59.60;;;;;;5084668;28;20025;-49
2022/05/01 12:04:28;;;;;;;4.85;3.00;;;22.50;47.30;;;;;;5069126;28;20035;-47
2022/05/01 12:07:03;;;;;;;7.10;3.08;;;22.60;52.10;;;;;;5065867;28;20115;-46
2022/05/01 12:09:30;;;;;;;6.05;3.13;;;21.80;51.40;;;;;;5080695;28;20028;-45
2022/05/01 12:11:56;;;;;;;4.40;2.90;;;21.30;50.30;;;;;;5088623;28;20039;-47
2022/05/01 12:14:21;;;;;;;5.32;2.92;;;21.20;50.20;;;;;;5080058;28;20051;-47
2022/05/01 12:16:47;;;;;;;5.03;2.50;;;20.80;51.60;;;;;;5063962;28;20032;-46
2022/05/01 12:19:14;;;;;;;4.95;2.72;;;20.70;53.30;;;;;;5074429;28;20028;-49
2022/05/01 12:21:41;;;;;;;4.00;3.05;;;21.00;54.50;;;;;;5080515;28;20058;-48
2022/05/01 12:24:09;;;;;;;4.63;3.33;;;20.90;53.10;;;;;;5071984;28;20021;-47
2022/05/01 12:26:46;;;;;;;4.90;3.72;;;20.70;52.80;;;;;;5073187;28;20025;-46
2022/05/01 12:29:12;;;;;;;7.57;3.47;;;20.40;51.90;;;;;;5048713;28;20447;-47
2022/05/01 12:32:14;;;;;;;8.00;3.60;;;20.20;55.80;;;;;;5079096;28;20530;-47
2022/05/01 12:34:49;;;;;;;6.13;3.03;;;20.00;55.30;;;;;;5087590;28;20032;-47
2022/05/01 12:37:20;;;;;;;6.05;4.00;;;19.90;55.80;;;;;;5079421;28;20020;-47
2022/05/01 12:40:09;;;;;;;7.60;3.88;;;19.90;55.00;;;;;;5085019;28;20205;-46
2022/05/01 12:45:47;;;;;;;7.00;4.13;;;19.30;55.80;;;;;;5065584;28;20048;-48
2022/05/01 12:48:14;;;;;;;5.07;4.53;;;19.90;59.60;;;;;;5073658;28;20029;-47
2022/05/01 12:50:42;;;;;;;9.88;4.60;;;19.90;58.00;;;;;;5083746;28;20443;-47
2022/05/01 12:53:27;;;;;;;5.75;3.70;;;19.70;58.50;;;;;;5071711;28;20474;-48
2022/05/01 12:55:55;;;;;;;4.90;3.67;;;19.50;58.80;;;;;;5047833;28;20539;-48
2022/05/01 12:58:30;;;;;;;9.75;4.40;;;19.30;59.70;;;;;;5076669;28;20024;-46
2022/05/01 13:00:57;;;;;;;10.52;4.57;;;18.80;59.10;;;;;;5088691;28;20028;-48
2022/05/01 13:03:24;;;;;;;12.60;4.80;;;18.40;59.10;;;;;;5075722;28;20116;-47
2022/05/01 13:06:09;;;;;;;7.15;4.68;;;18.40;60.30;;;;;;5088539;28;20536;-46
2022/05/01 13:08:38;;;;;;;7.38;4.93;;;18.50;60.10;;;;;;5078081;28;20550;-47
2022/05/01 13:11:11;;;;;;;8.00;4.82;;;18.40;60.20;;;;;;5084167;28;20024;-47
2022/05/01 13:13:52;;;;;;;7.70;5.15;;;18.30;58.90;;;;;;5082461;28;20061;-47
2022/05/01 13:16:22;;;;;;;9.05;4.93;;;18.10;58.50;;;;;;5085945;28;20039;-47
2022/05/01 13:18:51;;;;;;;8.35;4.38;;;18.20;61.30;;;;;;5075230;28;20031;-46
2022/05/01 13:21:17;;;;;;;9.45;5.13;;;18.30;61.20;;;;;;5079846;28;20376;-47
2022/05/01 13:23:44;;;;;;;7.15;4.60;;;18.20;61.50;;;;;;5076263;28;20012;-46
2022/05/01 13:26:09;;;;;;;7.60;4.57;;;18.30;61.00;;;;;;5079721;28;20027;-46
2022/05/01 13:28:35;;;;;;;8.02;4.80;;;18.10;61.20;;;;;;5079040;28;20028;-48
2022/05/01 13:31:01;;;;;;;9.50;4.68;;;17.80;60.30;;;;;;5080077;28;20028;-47
2022/05/01 13:33:27;;;;;;;10.43;5.43;;;17.80;62.50;;;;;;5086910;28;20037;-47